Airfield :







YOU CAN JOIN US ON...

 
LOGIN :

Register | Disclaimer

   EN    FR    IT 

 









Legend :    VFR   Marginal VFR   IFR   Intensive IFR   Very Intensive IFR
Visi :
Ceiling :
>= 8 km
>= 3000ft
5 to 8 km
1000 to 3000 ft
1500m to 5 km
500 to 1000 ft
800 to 1500m
200 to 500 ft
< 800m
< 200 ft
Symbols :   Thunderstorms  Fog  Heavy snow  Heavy precipitations  Wind > 20 kt






- Airport Elevation : 203 ft
- IATA code : YQY


CYQY - Sydney

CURRENT METAR :
  • 240400Z 13021G29KT 2SM RA BR OVC007 10/10 A2990 RMK NS8 SLP130

EXPIRED METARs :
  • 240351Z 14022G29KT 2SM SHRA BR OVC007CB 10/10 A2991 RMK CB8 SLP133
  • 240317Z 14024G30KT 2SM +TSRA BR OVC008CB 10/10 A2994 RMK CB8 LTNG SE 2 SM SLP142
  • 240300Z 15019G32KT 4SM TSRA BR OVC008CB 10/09 A2996 RMK CB8 LTNG PRESRR SLP148
  • 240242Z 13030G41KT 3SM SHRA BR OVC008CB 10/09 A2991 RMK CB8 LTNG PRESFR SLP131
  • 240200Z 15025G35KT 3SM RA BR OVC009 10/09 A2997 RMK NS8 PRESFR SLP152
  • 240145Z 14028G38KT 2SM RA BR OVC008 10/09 A2999 RMK NS8 SLP158

TAF AMD TAF CYQY
Valid from the 24 at 02:00 until the 24 at 12:00 UTC


240254Z 2402/2412 14025G38KT 1SM TSRA BR OVC008CB
TEMPO 2402/2404 6SM RA BR FEW008 OVC012
FM240400 15025G38KT 2SM RA BR OVC006
TEMPO 2404/2407 6SM -RA BR SCT006 OVC012
FM240700 17015G25KT 3SM -RA BR OVC008
FM241000 26012G22KT 6SM BR SCT008 OVC012 RMK NXT FCST BY 240600Z



MET'MAP, your aeronautical weather chart ! - Copyright ORBIFLY December 2007 - Disclaimer

ORBIFLY MET'MAP TEAM :

Programming & Development : Alexandra Zaïnal
Concept & Development : Baudouin d'Aumeries
Co-Development & Prog : Marc-Olivier Méhu
Technical & hardware support : Manuel Goepfert

Contact : metmap@orbifly.com




SOURCES & CREDITS :

   NOAA